Time;durP1;ratioP1;P1;durP2;ratioP2;P2;SDS_P1;SDS_P2;PMS_P1;PMS_P2;Temp;Humidity;BMP_temperature;BMP_pressure;BME280_temperature;BME280_humidity;BME280_pressure;Samples;Min_cycle;Max_cycle;Signal;HPM_P1;HPM_P2
2024/01/03 00:00:36;;;;;;;9.60;8.30;;;6.30;99.90;;;;;;6178417;23;20392;-70
2024/01/03 00:03:04;;;;;;;11.45;8.43;;;6.30;99.90;;;;;;6179173;23;20216;-64
2024/01/03 00:05:39;;;;;;;12.07;8.30;;;6.30;99.90;;;;;;6179300;23;20366;-65
2024/01/03 00:08:09;;;;;;;10.90;8.38;;;6.40;99.90;;;;;;6180374;23;20012;-64
2024/01/03 00:10:41;;;;;;;11.77;8.23;;;6.40;99.90;;;;;;6179232;23;20112;-65
2024/01/03 00:13:31;;;;;;;11.52;8.98;;;6.40;99.90;;;;;;6178303;23;20145;-64
2024/01/03 00:16:17;;;;;;;10.15;8.18;;;6.40;99.90;;;;;;6179344;23;20020;-65
2024/01/03 00:18:58;;;;;;;11.10;8.85;;;6.30;99.90;;;;;;6176366;23;20195;-65
2024/01/03 00:21:25;;;;;;;10.77;8.60;;;6.30;99.90;;;;;;6173183;23;20020;-65
2024/01/03 00:24:00;;;;;;;11.75;8.73;;;6.30;99.90;;;;;;6177457;23;20125;-67
2024/01/03 00:26:28;;;;;;;10.50;8.70;;;6.00;99.90;;;;;;6179514;23;20334;-68
2024/01/03 00:28:55;;;;;;;11.23;8.35;;;5.60;99.90;;;;;;6178084;23;20039;-67
2024/01/03 00:31:43;;;;;;;13.50;9.73;;;5.50;99.90;;;;;;6177307;23;20147;-67
2024/01/03 00:34:12;;;;;;;11.50;9.07;;;5.40;99.90;;;;;;6176772;23;20096;-67
2024/01/03 00:36:37;;;;;;;13.05;9.40;;;5.30;99.90;;;;;;6175761;23;20207;-68
2024/01/03 00:39:03;;;;;;;13.88;9.70;;;5.30;99.90;;;;;;6178288;23;20016;-68
2024/01/03 00:41:29;;;;;;;11.80;9.40;;;5.30;99.90;;;;;;6178521;23;20040;-64
2024/01/03 00:43:54;;;;;;;11.65;8.80;;;5.30;99.90;;;;;;6175203;23;20013;-64
2024/01/03 00:46:20;;;;;;;14.07;10.07;;;5.30;99.90;;;;;;6176990;23;20727;-65
2024/01/03 00:48:45;;;;;;;12.68;9.95;;;5.30;99.90;;;;;;6177357;23;20004;-64
2024/01/03 00:51:11;;;;;;;13.45;9.98;;;5.40;99.90;;;;;;6178169;23;20009;-64
2024/01/03 00:53:37;;;;;;;11.75;9.68;;;5.50;99.90;;;;;;6178375;23;20004;-64
2024/01/03 00:56:03;;;;;;;11.65;9.48;;;5.70;99.90;;;;;;6181130;23;20288;-64
2024/01/03 00:58:29;;;;;;;11.55;8.85;;;5.70;99.90;;;;;;6178634;23;20012;-64
2024/01/03 01:00:54;;;;;;;10.75;8.52;;;5.80;99.90;;;;;;6176854;23;20008;-68
2024/01/03 01:03:20;;;;;;;11.85;8.95;;;6.00;99.90;;;;;;6171665;23;20198;-68
2024/01/03 01:05:46;;;;;;;10.98;9.00;;;6.10;99.90;;;;;;6178167;23;20587;-68
2024/01/03 01:08:12;;;;;;;11.27;9.27;;;6.20;99.90;;;;;;6204657;23;20051;-68
2024/01/03 01:10:38;;;;;;;10.38;8.10;;;6.30;99.90;;;;;;6195883;23;20059;-68
2024/01/03 01:13:03;;;;;;;11.55;9.15;;;6.40;99.90;;;;;;6200201;23;20372;-68
2024/01/03 01:15:29;;;;;;;12.32;8.48;;;6.40;99.90;;;;;;6202884;23;20370;-68
2024/01/03 01:17:55;;;;;;;10.30;8.82;;;6.30;99.90;;;;;;6201760;23;20007;-68
2024/01/03 01:20:20;;;;;;;10.65;8.65;;;6.20;99.90;;;;;;6200549;23;20151;-67
2024/01/03 01:22:46;;;;;;;11.13;8.50;;;6.20;99.90;;;;;;6200746;23;20016;-68
2024/01/03 01:25:11;;;;;;;10.52;7.32;;;6.30;99.90;;;;;;6201288;23;20009;-68
2024/01/03 01:27:37;;;;;;;8.88;6.93;;;6.40;99.90;;;;;;6202694;23;20047;-68
2024/01/03 01:30:03;;;;;;;7.43;5.93;;;6.40;99.90;;;;;;6200098;23;20043;-68
2024/01/03 01:32:28;;;;;;;7.05;5.85;;;6.20;99.90;;;;;;6204250;23;20024;-68
2024/01/03 01:34:56;;;;;;;7.32;5.93;;;6.20;99.90;;;;;;6203788;23;20000;-68
2024/01/03 01:37:21;;;;;;;7.40;5.72;;;6.10;99.90;;;;;;6200135;23;20332;-68
2024/01/03 01:39:47;;;;;;;8.05;6.35;;;6.20;99.90;;;;;;6199467;23;20070;-68
2024/01/03 01:42:12;;;;;;;9.07;7.00;;;6.20;99.90;;;;;;6203097;23;20019;-68
2024/01/03 01:44:38;;;;;;;11.48;8.30;;;6.40;99.90;;;;;;6201622;23;20706;-68
2024/01/03 01:47:06;;;;;;;12.38;8.60;;;6.40;99.90;;;;;;6202351;23;20027;-68
2024/01/03 01:49:32;;;;;;;12.40;8.07;;;6.50;99.90;;;;;;6200581;23;20338;-68
2024/01/03 01:51:59;;;;;;;8.45;7.30;;;6.50;99.90;;;;;;6201024;23;20009;-68
2024/01/03 01:54:25;;;;;;;11.10;7.72;;;6.40;99.90;;;;;;6201970;23;20004;-68
2024/01/03 01:56:51;;;;;;;12.02;7.45;;;6.40;99.90;;;;;;6198504;23;20450;-68
2024/01/03 01:59:20;;;;;;;8.40;7.38;;;6.40;99.90;;;;;;6201397;23;20047;-67
2024/01/03 02:01:46;;;;;;;10.10;7.60;;;6.40;99.90;;;;;;6200930;23;20016;-68
2024/01/03 02:04:12;;;;;;;10.95;7.25;;;6.30;99.90;;;;;;6201290;23;20113;-67
2024/01/03 02:06:38;;;;;;;9.20;6.47;;;6.10;99.90;;;;;;6201330;23;20334;-68
2024/01/03 02:09:04;;;;;;;11.23;7.00;;;6.00;99.90;;;;;;6202537;23;20004;-68
2024/01/03 02:11:29;;;;;;;9.73;7.90;;;5.90;99.90;;;;;;6202086;23;20419;-68
2024/01/03 02:13:55;;;;;;;8.95;7.00;;;5.80;99.90;;;;;;6201239;23;20051;-69
2024/01/03 02:16:22;;;;;;;10.00;7.95;;;5.70;99.90;;;;;;6200960;23;20178;-69
2024/01/03 02:18:48;;;;;;;8.38;6.28;;;5.60;99.90;;;;;;6202634;23;20004;-70
2024/01/03 02:21:15;;;;;;;8.95;6.80;;;5.50;99.90;;;;;;6201190;23;20004;-69
2024/01/03 02:23:41;;;;;;;9.00;6.88;;;5.40;99.90;;;;;;6202712;23;20477;-69
2024/01/03 02:26:08;;;;;;;9.98;6.70;;;5.40;99.90;;;;;;6196800;23;20008;-69
2024/01/03 02:28:33;;;;;;;8.73;7.05;;;5.40;99.90;;;;;;6200318;23;20009;-69
2024/01/03 02:30:59;;;;;;;8.93;7.10;;;5.40;99.90;;;;;;6201259;23;20032;-69
2024/01/03 02:33:25;;;;;;;9.05;7.13;;;5.40;99.90;;;;;;6198935;23;20005;-69
2024/01/03 02:35:50;;;;;;;8.80;7.28;;;5.40;99.90;;;;;;6199202;23;20015;-69
2024/01/03 02:38:16;;;;;;;8.63;7.03;;;5.30;99.90;;;;;;6200881;23;20008;-69
2024/01/03 02:40:44;;;;;;;9.70;7.43;;;5.30;99.90;;;;;;6199112;23;20661;-69
2024/01/03 02:43:09;;;;;;;11.30;7.60;;;5.30;99.90;;;;;;6197913;23;20013;-69
2024/01/03 02:45:35;;;;;;;10.18;7.53;;;5.30;99.90;;;;;;6199719;23;20027;-68
2024/01/03 02:48:01;;;;;;;9.82;7.55;;;5.30;99.90;;;;;;6199782;23;20098;-69
2024/01/03 02:50:27;;;;;;;10.05;7.75;;;5.30;99.90;;;;;;6200408;23;20009;-65
2024/01/03 02:52:53;;;;;;;10.35;7.82;;;5.20;99.90;;;;;;6199621;23;20347;-65
2024/01/03 02:55:18;;;;;;;11.10;7.82;;;5.20;99.90;;;;;;6201201;23;20448;-65
2024/01/03 02:57:44;;;;;;;10.43;7.75;;;5.20;99.90;;;;;;6200697;23;20008;-65
2024/01/03 03:00:11;;;;;;;11.52;7.85;;;5.30;99.90;;;;;;6197451;23;20504;-65
2024/01/03 03:02:36;;;;;;;10.45;8.32;;;5.30;99.90;;;;;;6201717;23;20019;-65
2024/01/03 03:05:02;;;;;;;11.20;7.93;;;5.20;99.90;;;;;;6201288;23;20005;-65
2024/01/03 03:07:28;;;;;;;10.50;7.20;;;5.20;99.90;;;;;;6196369;23;20414;-66
2024/01/03 03:09:53;;;;;;;11.77;7.88;;;5.20;99.90;;;;;;6202176;23;20072;-65
2024/01/03 03:12:19;;;;;;;10.50;8.00;;;5.30;99.90;;;;;;6202697;23;20527;-65
2024/01/03 03:14:44;;;;;;;9.80;7.65;;;5.30;99.90;;;;;;6201760;23;20008;-65
2024/01/03 03:17:10;;;;;;;9.00;6.78;;;5.30;99.90;;;;;;6201935;23;20008;-65
2024/01/03 03:19:36;;;;;;;11.93;7.50;;;5.30;99.90;;;;;;6199318;23;20017;-65
2024/01/03 03:22:01;;;;;;;11.38;7.97;;;5.30;99.90;;;;;;6198872;23;20072;-66
2024/01/03 03:24:27;;;;;;;11.88;7.90;;;5.30;99.90;;;;;;6197470;23;20194;-65
2024/01/03 03:26:53;;;;;;;10.68;7.43;;;5.20;99.90;;;;;;6200296;23;20524;-65
2024/01/03 03:29:19;;;;;;;11.18;8.13;;;5.20;99.90;;;;;;6202711;23;20008;-65
2024/01/03 03:31:45;;;;;;;10.88;7.93;;;5.20;99.90;;;;;;6201264;23;20602;-66
2024/01/03 03:34:10;;;;;;;9.90;7.28;;;5.20;99.90;;;;;;6202817;23;20071;-66
2024/01/03 03:36:36;;;;;;;10.75;6.43;;;5.30;99.90;;;;;;6201338;23;20005;-65
2024/01/03 03:39:06;;;;;;;8.35;6.25;;;5.30;99.90;;;;;;6200180;23;20004;-65
2024/01/03 03:41:32;;;;;;;9.18;6.07;;;5.30;99.90;;;;;;6201994;23;20043;-65
2024/01/03 03:43:58;;;;;;;12.10;6.90;;;5.30;99.90;;;;;;6200214;23;20459;-65
2024/01/03 03:46:24;;;;;;;7.82;5.60;;;5.40;99.90;;;;;;6202085;23;20020;-65
2024/01/03 03:48:49;;;;;;;8.32;5.78;;;5.40;99.90;;;;;;6201298;23;20413;-65
2024/01/03 03:51:15;;;;;;;8.73;5.82;;;5.40;99.90;;;;;;6199895;23;20015;-65
2024/01/03 03:53:40;;;;;;;9.00;5.30;;;5.50;99.90;;;;;;6199726;23;20027;-66
2024/01/03 03:56:06;;;;;;;7.28;4.18;;;5.50;99.90;;;;;;6198614;23;20004;-65
2024/01/03 03:58:32;;;;;;;5.93;4.50;;;5.50;99.90;;;;;;6199875;23;20013;-65
2024/01/03 04:00:57;;;;;;;4.45;3.60;;;5.60;99.90;;;;;;6201114;23;20009;-65
2024/01/03 04:03:23;;;;;;;6.32;4.38;;;5.60;99.90;;;;;;6200748;23;20004;-65
2024/01/03 04:05:48;;;;;;;5.72;3.45;;;5.70;99.90;;;;;;6201318;23;20090;-65
2024/01/03 04:08:15;;;;;;;3.97;2.90;;;5.80;99.90;;;;;;6202235;23;20009;-65
2024/01/03 04:10:41;;;;;;;4.72;3.20;;;5.90;99.90;;;;;;6198465;23;20103;-65
2024/01/03 04:13:07;;;;;;;3.78;2.88;;;5.90;99.90;;;;;;6198030;23;20442;-64
2024/01/03 04:15:33;;;;;;;3.55;3.20;;;5.90;99.90;;;;;;6200342;23;20127;-64
2024/01/03 04:17:59;;;;;;;4.82;3.00;;;6.00;99.90;;;;;;6199928;23;20675;-64
2024/01/03 04:20:24;;;;;;;4.22;3.17;;;6.10;99.90;;;;;;6200291;23;20005;-63
2024/01/03 04:22:50;;;;;;;4.13;3.35;;;6.10;99.90;;;;;;6197960;23;20027;-64
2024/01/03 04:25:16;;;;;;;5.78;3.28;;;6.00;99.90;;;;;;6200082;23;19996;-63
2024/01/03 04:27:42;;;;;;;6.15;3.47;;;5.90;99.90;;;;;;6198803;23;20031;-64
2024/01/03 04:30:08;;;;;;;3.67;2.88;;;5.90;99.90;;;;;;6198974;23;20490;-64
2024/01/03 04:32:34;;;;;;;4.68;3.20;;;5.90;99.90;;;;;;6199889;23;20012;-64
2024/01/03 04:34:59;;;;;;;4.70;3.40;;;5.90;99.90;;;;;;6194772;23;20005;-64
2024/01/03 04:37:25;;;;;;;3.65;2.63;;;6.00;99.90;;;;;;6200196;23;20004;-64
2024/01/03 04:39:51;;;;;;;3.58;2.80;;;6.00;99.90;;;;;;6198868;23;20075;-63
2024/01/03 04:42:16;;;;;;;4.88;2.50;;;6.00;99.90;;;;;;6198964;23;20060;-68
2024/01/03 04:44:43;;;;;;;3.50;2.70;;;6.00;99.90;;;;;;6198463;23;20016;-68
2024/01/03 04:47:08;;;;;;;4.25;2.70;;;6.00;99.90;;;;;;6199469;23;20015;-68
2024/01/03 04:49:34;;;;;;;5.60;2.85;;;6.10;99.90;;;;;;6196960;23;20338;-69
2024/01/03 04:52:00;;;;;;;4.78;2.65;;;6.10;99.90;;;;;;6198710;23;20079;-68
2024/01/03 04:54:25;;;;;;;3.60;2.70;;;6.20;99.90;;;;;;6198990;23;20478;-68
2024/01/03 04:56:52;;;;;;;4.15;2.67;;;6.10;99.90;;;;;;6199162;23;20024;-68
2024/01/03 04:59:17;;;;;;;2.92;2.20;;;6.20;99.90;;;;;;6200135;23;20009;-68
2024/01/03 05:01:43;;;;;;;3.53;2.55;;;6.20;99.90;;;;;;6199705;23;20544;-67
2024/01/03 05:04:09;;;;;;;3.67;2.15;;;6.30;99.90;;;;;;6202172;23;19997;-68
2024/01/03 05:06:35;;;;;;;3.15;2.45;;;6.30;99.90;;;;;;6199726;23;20187;-68
2024/01/03 05:09:01;;;;;;;3.72;2.20;;;6.30;99.90;;;;;;6203570;23;20087;-68
2024/01/03 05:11:28;;;;;;;2.78;2.08;;;6.30;99.90;;;;;;6202977;23;20000;-68
2024/01/03 05:13:54;;;;;;;3.00;2.03;;;6.30;99.90;;;;;;6201915;23;20005;-68
2024/01/03 05:16:20;;;;;;;3.50;2.38;;;6.30;99.90;;;;;;6204342;23;20080;-68
2024/01/03 05:18:45;;;;;;;3.42;2.00;;;6.30;99.90;;;;;;6202280;23;20442;-68
2024/01/03 05:21:11;;;;;;;3.40;2.20;;;6.40;99.90;;;;;;6199724;23;20438;-68
2024/01/03 05:23:37;;;;;;;3.33;1.90;;;6.40;99.90;;;;;;6203316;23;20019;-69
2024/01/03 05:26:03;;;;;;;2.72;2.05;;;6.40;99.90;;;;;;6203314;23;20009;-68
2024/01/03 05:28:28;;;;;;;3.08;1.77;;;6.50;99.90;;;;;;6203204;23;20004;-68
2024/01/03 05:30:54;;;;;;;3.90;2.10;;;6.50;99.90;;;;;;6202677;23;20385;-68
2024/01/03 05:33:20;;;;;;;2.53;1.65;;;6.50;99.90;;;;;;6202705;23;20004;-68
2024/01/03 05:35:45;;;;;;;3.42;1.90;;;6.50;99.90;;;;;;6201993;23;20852;-63
2024/01/03 05:38:11;;;;;;;2.83;1.83;;;6.50;99.90;;;;;;6197720;23;20027;-64
2024/01/03 05:40:36;;;;;;;5.38;2.53;;;6.60;99.90;;;;;;6202307;23;20001;-63
2024/01/03 05:43:02;;;;;;;2.05;1.73;;;6.60;99.90;;;;;;6202281;23;20330;-63
2024/01/03 05:45:28;;;;;;;2.47;1.73;;;6.60;99.90;;;;;;6202520;23;20082;-63
2024/01/03 05:47:53;;;;;;;2.42;1.58;;;6.60;99.90;;;;;;6203909;23;20004;-63
2024/01/03 05:50:19;;;;;;;2.08;1.30;;;6.60;99.90;;;;;;6201368;23;20008;-63
2024/01/03 05:52:45;;;;;;;2.85;1.15;;;6.70;99.90;;;;;;6201674;23;20708;-62
2024/01/03 05:55:10;;;;;;;2.03;1.30;;;6.70;99.90;;;;;;6200349;23;20088;-63
2024/01/03 05:57:36;;;;;;;2.13;1.30;;;6.80;99.90;;;;;;6203450;23;20007;-64
2024/01/03 06:00:04;;;;;;;1.23;1.02;;;6.80;99.90;;;;;;6199679;23;20110;-63
2024/01/03 06:02:30;;;;;;;2.20;1.27;;;6.80;99.90;;;;;;6202053;23;20040;-64
2024/01/03 06:04:55;;;;;;;2.38;1.50;;;6.80;99.90;;;;;;6199771;23;20382;-64
2024/01/03 06:07:21;;;;;;;1.25;1.00;;;6.80;99.90;;;;;;6200339;23;20016;-64
2024/01/03 06:09:47;;;;;;;3.05;1.30;;;6.90;99.90;;;;;;6196344;23;20426;-63
2024/01/03 06:12:12;;;;;;;2.30;1.50;;;6.90;99.90;;;;;;6203855;23;20008;-64
2024/01/03 06:14:38;;;;;;;1.80;1.17;;;7.00;99.90;;;;;;6202358;23;20012;-63
2024/01/03 06:17:04;;;;;;;1.95;1.17;;;7.00;99.90;;;;;;6199049;23;20291;-63
2024/01/03 06:19:29;;;;;;;1.30;0.85;;;7.10;99.90;;;;;;6202262;23;20072;-63
2024/01/03 06:21:55;;;;;;;2.00;1.35;;;7.10;99.90;;;;;;6203014;23;20012;-64
2024/01/03 06:24:21;;;;;;;4.88;2.03;;;7.10;99.90;;;;;;6201571;23;20079;-63
2024/01/03 06:26:47;;;;;;;45.00;32.63;;;7.10;99.90;;;;;;6202719;23;20020;-63
2024/01/03 06:29:12;;;;;;;17.40;9.82;;;7.10;99.90;;;;;;6202291;23;20015;-63
2024/01/03 06:31:38;;;;;;;3.30;2.78;;;7.00;99.90;;;;;;6202586;23;20028;-64
2024/01/03 06:34:03;;;;;;;1.52;1.20;;;7.00;99.90;;;;;;6197941;23;20000;-63
2024/01/03 06:36:29;;;;;;;1.52;1.10;;;7.00;99.90;;;;;;6202393;23;20181;-63
2024/01/03 06:38:56;;;;;;;1.85;1.30;;;7.00;99.90;;;;;;6201279;23;20114;-64
2024/01/03 06:41:22;;;;;;;2.30;1.02;;;6.90;99.90;;;;;;6200910;23;20088;-64
2024/01/03 06:43:47;;;;;;;1.67;1.08;;;6.90;99.90;;;;;;6201655;23;20396;-64
2024/01/03 06:46:13;;;;;;;1.58;1.38;;;7.00;99.90;;;;;;6201159;23;20028;-64
2024/01/03 06:48:39;;;;;;;2.05;1.23;;;7.00;99.90;;;;;;6198570;23;20031;-64
2024/01/03 06:51:04;;;;;;;2.30;0.98;;;7.10;99.90;;;;;;6199847;23;20096;-64
2024/01/03 06:53:31;;;;;;;1.30;1.10;;;7.20;99.90;;;;;;6201788;23;20465;-63
2024/01/03 06:55:57;;;;;;;1.65;1.10;;;7.20;99.90;;;;;;6199090;23;20004;-64
2024/01/03 06:58:24;;;;;;;2.30;0.70;;;7.20;99.90;;;;;;6202231;23;20096;-63
2024/01/03 07:00:50;;;;;;;1.15;0.98;;;7.30;99.90;;;;;;6195551;23;20008;-64
2024/01/03 07:03:16;;;;;;;0.90;0.60;;;7.40;99.90;;;;;;6200089;23;20244;-63
2024/01/03 07:05:41;;;;;;;1.02;0.80;;;7.40;99.90;;;;;;6202157;23;20004;-63
2024/01/03 07:08:08;;;;;;;0.90;0.40;;;7.50;99.90;;;;;;6200857;23;20142;-64
2024/01/03 07:10:34;;;;;;;1.23;0.43;;;7.60;99.90;;;;;;6202849;23;20005;-64
2024/01/03 07:13:00;;;;;;;1.08;0.30;;;8.00;99.90;;;;;;6200293;23;20016;-65
2024/01/03 07:15:29;;;;;;;0.60;0.50;;;8.30;99.90;;;;;;6202018;23;20004;-64
2024/01/03 07:17:55;;;;;;;0.63;0.30;;;8.40;99.90;;;;;;6200548;23;20319;-64
2024/01/03 07:20:24;;;;;;;0.45;0.40;;;8.40;99.90;;;;;;6193499;23;20053;-65
2024/01/03 07:22:50;;;;;;;0.43;0.43;;;8.50;99.90;;;;;;6201106;23;20709;-65
2024/01/03 07:25:16;;;;;;;0.77;0.63;;;8.60;99.90;;;;;;6201213;23;20076;-65
2024/01/03 07:27:42;;;;;;;0.55;0.32;;;8.60;99.90;;;;;;6202447;23;20040;-65
2024/01/03 07:30:09;;;;;;;1.63;0.43;;;8.80;99.90;;;;;;6200708;23;20482;-65
2024/01/03 07:32:34;;;;;;;0.68;0.50;;;8.80;99.90;;;;;;6202309;23;20031;-63
2024/01/03 07:35:00;;;;;;;0.63;0.57;;;8.80;99.90;;;;;;6200695;23;20399;-64
2024/01/03 07:37:26;;;;;;;0.73;0.40;;;8.90;99.90;;;;;;6199053;23;20076;-64
2024/01/03 07:39:52;;;;;;;0.77;0.50;;;8.90;99.90;;;;;;6198642;23;20528;-65
2024/01/03 07:42:17;;;;;;;1.08;0.50;;;8.90;99.90;;;;;;6202014;23;20505;-64
2024/01/03 07:44:43;;;;;;;1.50;0.52;;;8.90;99.90;;;;;;6201055;23;20028;-66
2024/01/03 07:47:10;;;;;;;0.55;0.47;;;9.00;99.90;;;;;;6202566;23;20024;-64
2024/01/03 07:49:37;;;;;;;1.70;0.50;;;9.10;99.90;;;;;;6201887;23;20016;-64
2024/01/03 07:52:03;;;;;;;0.55;0.32;;;9.20;99.90;;;;;;6200360;23;20350;-63
2024/01/03 07:54:29;;;;;;;0.65;0.47;;;9.40;99.90;;;;;;6200808;23;20005;-70
2024/01/03 07:56:57;;;;;;;0.35;0.20;;;9.50;99.90;;;;;;6197595;23;20389;-66
2024/01/03 07:59:22;;;;;;;0.80;0.52;;;9.60;99.90;;;;;;6201412;23;20400;-64
2024/01/03 08:01:48;;;;;;;0.45;0.30;;;9.70;99.90;;;;;;6201318;23;20096;-64
2024/01/03 08:04:16;;;;;;;0.20;0.20;;;9.90;99.90;;;;;;6199622;23;20009;-71
2024/01/03 08:06:42;;;;;;;0.50;0.35;;;10.00;99.90;;;;;;6201914;23;20075;-70
2024/01/03 08:09:07;;;;;;;1.20;0.30;;;10.10;99.90;;;;;;6197677;23;20013;-69
2024/01/03 08:11:33;;;;;;;0.55;0.30;;;10.20;99.90;;;;;;6196647;23;20088;-69
2024/01/03 08:13:59;;;;;;;0.98;0.30;;;10.20;99.90;;;;;;6201810;23;20004;-69
2024/01/03 08:16:24;;;;;;;1.40;0.30;;;10.30;99.90;;;;;;6200941;23;20004;-69
2024/01/03 08:18:50;;;;;;;0.65;0.57;;;10.30;99.90;;;;;;6202727;23;20004;-69
2024/01/03 08:21:15;;;;;;;0.25;0.25;;;10.30;99.90;;;;;;6201502;23;20426;-69
2024/01/03 08:23:42;;;;;;;0.90;0.40;;;10.30;99.90;;;;;;6201982;23;20012;-70
2024/01/03 08:26:13;;;;;;;1.13;0.50;;;10.30;99.90;;;;;;6204009;23;20160;-69
2024/01/03 08:28:40;;;;;;;0.65;0.65;;;10.30;99.90;;;;;;6199477;23;20001;-68
2024/01/03 08:31:08;;;;;;;1.63;0.50;;;10.30;99.90;;;;;;6199536;23;20307;-69
2024/01/03 08:33:37;;;;;;;0.25;0.25;;;10.30;99.90;;;;;;6201068;23;20030;-68
2024/01/03 08:36:03;;;;;;;0.32;0.30;;;10.30;99.90;;;;;;6201920;23;20004;-69
2024/01/03 08:38:29;;;;;;;0.65;0.30;;;10.30;99.90;;;;;;6202480;23;20545;-68
2024/01/03 08:40:54;;;;;;;3.65;0.30;;;10.30;99.90;;;;;;6201838;23;20005;-63
2024/01/03 08:43:20;;;;;;;0.90;0.40;;;10.20;99.90;;;;;;6195119;23;20167;-63
2024/01/03 08:45:45;;;;;;;1.95;0.30;;;10.30;99.90;;;;;;6177640;23;20023;-63
2024/01/03 08:48:11;;;;;;;0.60;0.40;;;10.30;99.90;;;;;;6199537;23;20035;-63
2024/01/03 08:50:36;;;;;;;0.32;0.32;;;10.30;99.90;;;;;;6188922;23;20004;-63
2024/01/03 08:53:02;;;;;;;0.75;0.40;;;10.40;99.90;;;;;;6202096;23;20001;-63
2024/01/03 08:55:28;;;;;;;1.02;0.45;;;10.40;99.90;;;;;;6192247;23;20046;-63
2024/01/03 08:57:56;;;;;;;1.42;0.50;;;10.40;99.90;;;;;;6200767;23;20000;-70
2024/01/03 09:00:23;;;;;;;3.33;0.30;;;10.50;99.90;;;;;;6192764;23;20017;-62
2024/01/03 09:02:49;;;;;;;2.58;0.77;;;10.50;99.90;;;;;;6198399;23;20421;-62
2024/01/03 09:05:15;;;;;;;0.28;0.20;;;10.60;99.90;;;;;;6199455;23;20500;-67
2024/01/03 09:07:43;;;;;;;0.43;0.20;;;10.70;99.90;;;;;;6201150;23;20088;-62
2024/01/03 09:10:09;;;;;;;0.98;0.30;;;10.80;99.90;;;;;;6201313;23;20087;-62
2024/01/03 09:12:35;;;;;;;0.20;0.20;;;10.90;99.90;;;;;;6200380;23;20135;-63
2024/01/03 09:15:00;;;;;;;0.82;0.10;;;10.90;99.90;;;;;;6189000;23;20001;-63
2024/01/03 09:17:26;;;;;;;0.50;0.28;;;11.00;99.90;;;;;;6200865;23;20404;-65
2024/01/03 09:19:52;;;;;;;0.20;0.20;;;11.10;99.90;;;;;;6198733;23;20366;-65
2024/01/03 09:22:17;;;;;;;0.57;0.20;;;11.10;99.90;;;;;;6199759;23;20016;-65
2024/01/03 09:24:43;;;;;;;0.13;0.08;;;11.20;99.90;;;;;;6201042;23;20004;-64
2024/01/03 09:27:08;;;;;;;0.38;0.20;;;11.30;99.90;;;;;;6200615;23;20001;-63
2024/01/03 09:29:34;;;;;;;0.47;0.20;;;11.30;99.90;;;;;;6197306;23;20636;-62
2024/01/03 09:32:00;;;;;;;0.20;0.20;;;11.30;99.90;;;;;;6196423;23;20058;-62
2024/01/03 09:34:26;;;;;;;0.70;0.20;;;11.30;99.90;;;;;;6199052;23;20008;-67
2024/01/03 09:36:53;;;;;;;0.10;0.10;;;11.30;99.90;;;;;;6197922;23;20086;-65
2024/01/03 09:39:19;;;;;;;0.60;0.20;;;11.40;99.90;;;;;;6199687;23;20027;-63
2024/01/03 09:41:46;;;;;;;0.22;0.15;;;11.30;99.90;;;;;;6197299;23;20012;-71
2024/01/03 09:44:12;;;;;;;1.17;0.38;;;11.30;99.90;;;;;;6197902;23;20001;-67
2024/01/03 09:46:38;;;;;;;0.65;0.20;;;11.30;99.90;;;;;;6200172;23;20020;-64
2024/01/03 09:49:04;;;;;;;0.52;0.20;;;11.30;99.90;;;;;;6199666;23;20334;-65
2024/01/03 09:51:30;;;;;;;0.35;0.10;;;11.30;99.90;;;;;;6199781;23;20070;-65
2024/01/03 09:53:56;;;;;;;0.30;0.30;;;11.20;99.90;;;;;;6202306;23;20009;-65
2024/01/03 09:56:22;;;;;;;0.40;0.20;;;11.20;99.90;;;;;;6199229;23;20005;-64
2024/01/03 09:58:48;;;;;;;0.52;0.30;;;11.30;99.90;;;;;;6200840;23;20015;-62
2024/01/03 10:01:13;;;;;;;0.20;0.20;;;11.20;99.90;;;;;;6197620;23;20076;-64
2024/01/03 10:03:39;;;;;;;0.25;0.20;;;11.20;99.90;;;;;;6197097;23;20827;-64
2024/01/03 10:06:15;;;;;;;1.05;0.30;;;11.20;99.90;;;;;;6199803;23;20004;-67
2024/01/03 10:08:41;;;;;;;0.82;0.30;;;11.10;99.90;;;;;;6201303;23;20008;-64
2024/01/03 10:11:20;;;;;;;0.68;0.30;;;11.20;99.90;;;;;;6199560;23;20000;-64
2024/01/03 10:13:48;;;;;;;0.40;0.30;;;11.20;99.90;;;;;;6193065;23;20008;-68
2024/01/03 10:16:25;;;;;;;0.63;0.20;;;11.20;99.90;;;;;;6199728;23;20008;-72
2024/01/03 10:19:20;;;;;;;0.30;0.28;;;11.30;99.90;;;;;;6191992;23;20370;-69
2024/01/03 10:21:52;;;;;;;1.10;0.40;;;11.30;99.90;;;;;;6197064;23;20015;-70
2024/01/03 10:24:26;;;;;;;0.80;0.28;;;11.30;99.90;;;;;;6201033;23;20009;-68
2024/01/03 10:26:52;;;;;;;0.20;0.20;;;11.30;99.90;;;;;;6177165;23;20478;-69
2024/01/03 10:29:19;;;;;;;0.43;0.28;;;11.40;99.90;;;;;;6181241;23;20051;-67
2024/01/03 10:31:46;;;;;;;0.35;0.20;;;11.40;99.90;;;;;;6179355;23;20288;-65
2024/01/03 10:34:17;;;;;;;2.08;0.40;;;11.40;99.90;;;;;;6178039;23;20039;-67
2024/01/03 10:36:46;;;;;;;0.52;0.30;;;11.40;99.90;;;;;;6179055;23;20281;-65
2024/01/03 10:39:15;;;;;;;0.20;0.20;;;11.40;99.90;;;;;;6180114;23;20032;-64
2024/01/03 10:41:46;;;;;;;1.08;0.32;;;11.50;99.90;;;;;;6176983;23;20454;-62
2024/01/03 10:44:14;;;;;;;0.20;0.20;;;11.50;99.90;;;;;;6178565;23;20619;-63
2024/01/03 10:46:43;;;;;;;0.40;0.30;;;11.60;99.90;;;;;;6181208;23;20062;-68
2024/01/03 10:49:09;;;;;;;1.65;0.10;;;11.60;99.90;;;;;;6177849;23;20012;-68
2024/01/03 10:51:42;;;;;;;0.10;0.10;;;11.70;99.90;;;;;;6179237;23;20508;-70
2024/01/03 10:54:13;;;;;;;0.47;0.22;;;11.80;99.90;;;;;;6179668;23;20008;-69
2024/01/03 10:56:51;;;;;;;3.08;0.20;;;12.00;99.90;;;;;;6179201;23;20008;-68
2024/01/03 10:59:17;;;;;;;0.55;0.55;;;12.00;99.90;;;;;;6181191;23;20008;-67
2024/01/03 11:01:50;;;;;;;0.35;0.20;;;12.00;99.90;;;;;;6178352;23;20112;-69
2024/01/03 11:04:18;;;;;;;0.30;0.20;;;12.00;99.90;;;;;;6178834;23;20012;-68
2024/01/03 11:06:52;;;;;;;0.43;0.30;;;12.00;99.90;;;;;;6177562;23;20193;-70
2024/01/03 11:09:19;;;;;;;0.20;0.10;;;11.90;99.90;;;;;;6178772;23;20318;-70
2024/01/03 11:11:44;;;;;;;0.17;0.17;;;11.90;99.90;;;;;;6192055;23;20434;-70
2024/01/03 11:14:16;;;;;;;0.30;0.20;;;11.80;99.90;;;;;;6199334;23;20303;-70
2024/01/03 11:16:42;;;;;;;0.65;0.35;;;11.70;99.90;;;;;;6199836;23;20411;-70
2024/01/03 11:19:08;;;;;;;0.25;0.20;;;11.70;99.90;;;;;;6195261;23;20453;-70
2024/01/03 11:21:37;;;;;;;1.52;0.40;;;11.60;99.90;;;;;;6199440;23;20004;-70
2024/01/03 11:24:09;;;;;;;1.55;0.40;;;11.50;99.90;;;;;;6175543;23;20290;-70
2024/01/03 11:26:56;;;;;;;0.77;0.50;;;11.50;99.90;;;;;;6194742;23;20027;-70
2024/01/03 11:29:48;;;;;;;0.45;0.20;;;11.50;99.90;;;;;;6185780;23;20069;-70
2024/01/03 11:32:30;;;;;;;0.30;0.30;;;11.50;99.90;;;;;;6179385;23;20020;-71
2024/01/03 11:34:57;;;;;;;1.10;0.35;;;11.50;99.90;;;;;;6178838;23;20280;-70
2024/01/03 11:37:22;;;;;;;0.57;0.40;;;11.50;99.90;;;;;;6178938;23;20394;-70
2024/01/03 11:39:53;;;;;;;0.30;0.30;;;11.50;99.90;;;;;;6178037;23;20004;-73
2024/01/03 11:42:23;;;;;;;0.22;0.22;;;11.40;99.90;;;;;;6178975;23;20186;-71
2024/01/03 11:45:12;;;;;;;0.73;0.35;;;11.40;99.90;;;;;;6179845;23;20280;-70
2024/01/03 11:47:39;;;;;;;0.30;0.20;;;11.30;99.90;;;;;;6180746;23;20008;-71
2024/01/03 11:50:08;;;;;;;0.45;0.30;;;11.40;99.90;;;;;;6192543;23;19997;-71
2024/01/03 11:52:38;;;;;;;5.88;0.32;;;11.50;99.90;;;;;;6200812;23;20019;-70
2024/01/03 11:55:10;;;;;;;0.30;0.30;;;11.60;99.90;;;;;;6202416;23;20290;-70
2024/01/03 11:57:37;;;;;;;;;;;11.60;99.90;;;;;;6198901;23;20380;-71
2024/01/03 12:00:03;;;;;;;0.40;0.25;;;11.70;99.90;;;;;;6200281;23;19911;-69
2024/01/03 12:02:29;;;;;;;0.88;0.40;;;11.70;99.90;;;;;;6202661;23;20027;-62
2024/01/03 12:05:08;;;;;;;0.40;0.20;;;11.70;99.90;;;;;;6197356;23;20005;-62
2024/01/03 12:07:36;;;;;;;1.75;0.47;;;11.70;99.90;;;;;;6200245;23;20482;-62
2024/01/03 12:10:03;;;;;;;16.23;1.20;;;11.70;99.90;;;;;;6198520;23;20012;-63
2024/01/03 12:12:29;;;;;;;4.55;0.55;;;11.80;99.90;;;;;;6200565;23;20032;-65
2024/01/03 12:14:55;;;;;;;0.75;0.40;;;11.90;99.90;;;;;;6201117;23;20338;-65
2024/01/03 12:17:29;;;;;;;0.90;0.57;;;11.80;99.90;;;;;;6201910;23;20005;-65
2024/01/03 12:20:09;;;;;;;0.20;0.20;;;11.80;99.90;;;;;;6201697;23;20067;-65
2024/01/03 12:22:35;;;;;;;1.02;0.30;;;11.80;99.90;;;;;;6200881;23;20012;-71
2024/01/03 12:25:02;;;;;;;1.50;0.50;;;11.80;99.90;;;;;;6201479;23;20007;-71
2024/01/03 12:27:28;;;;;;;1.02;0.60;;;11.70;99.90;;;;;;6199594;23;20210;-71
2024/01/03 12:30:16;;;;;;;0.68;0.28;;;11.70;99.90;;;;;;6199569;23;20256;-71
2024/01/03 12:32:44;;;;;;;0.30;0.30;;;11.60;99.90;;;;;;6200248;23;20095;-72
2024/01/03 12:35:12;;;;;;;0.85;0.50;;;11.50;99.90;;;;;;6201667;23;20019;-71
2024/01/03 12:37:42;;;;;;;0.93;0.30;;;11.50;99.90;;;;;;6198698;23;20009;-71
2024/01/03 12:40:09;;;;;;;0.43;0.40;;;11.40;99.90;;;;;;6199875;23;20009;-65
2024/01/03 12:42:34;;;;;;;0.93;0.40;;;11.40;99.90;;;;;;6198897;23;20040;-65
2024/01/03 12:45:00;;;;;;;0.40;0.28;;;11.40;99.90;;;;;;6200731;23;20712;-65
2024/01/03 12:47:26;;;;;;;1.10;0.40;;;11.40;99.90;;;;;;6199374;23;20013;-65
2024/01/03 12:49:53;;;;;;;0.40;0.32;;;11.40;99.90;;;;;;6191933;23;20037;-65